Time;durP1;ratioP1;P1;durP2;ratioP2;P2;SDS_P1;SDS_P2;PMS_P1;PMS_P2;Temp;Humidity;BMP_temperature;BMP_pressure;BME280_temperature;BME280_humidity;BME280_pressure;Samples;Min_cycle;Max_cycle;Signal;HPM_P1;HPM_P2
2022/05/04 00:02:21;;;;;;;5.50;2.20;;;8.80;77.20;;;;;;2222400;64;20210;-69
2022/05/04 00:04:59;;;;;;;9.57;2.38;;;8.80;77.20;;;;;;2230348;64;20182;-70
2022/05/04 00:07:42;;;;;;;7.70;2.25;;;8.80;77.40;;;;;;2223247;64;20304;-71
2022/05/04 00:10:19;;;;;;;4.65;1.73;;;8.90;77.50;;;;;;2226113;64;20246;-70
2022/05/04 00:12:55;;;;;;;6.95;2.53;;;8.90;77.60;;;;;;2226009;64;20336;-70
2022/05/04 00:15:33;;;;;;;6.18;2.03;;;8.80;77.60;;;;;;2222972;64;20193;-70
2022/05/04 00:18:13;;;;;;;9.95;2.83;;;8.90;77.80;;;;;;2223926;64;20203;-70
2022/05/04 00:20:51;;;;;;;8.23;2.88;;;8.90;78.00;;;;;;2222949;64;20218;-71
2022/05/04 00:23:28;;;;;;;7.43;2.50;;;8.90;77.90;;;;;;2228034;64;20179;-71
2022/05/04 00:26:06;;;;;;;4.70;2.05;;;8.90;78.10;;;;;;2226131;64;20259;-70
2022/05/04 00:28:45;;;;;;;5.95;2.85;;;8.90;78.40;;;;;;2225372;64;20175;-71
2022/05/04 00:31:22;;;;;;;6.78;3.08;;;8.80;78.20;;;;;;2225308;64;20184;-70
2022/05/04 00:34:00;;;;;;;10.98;2.35;;;8.90;78.30;;;;;;2228219;64;20331;-70
2022/05/04 00:36:39;;;;;;;6.40;2.22;;;8.90;78.30;;;;;;2223084;64;20303;-69
2022/05/04 00:39:19;;;;;;;5.97;2.50;;;8.90;78.60;;;;;;2221073;64;20254;-70
2022/05/04 00:42:17;;;;;;;6.95;2.17;;;8.90;78.70;;;;;;2228462;64;20214;-71
2022/05/04 00:44:56;;;;;;;5.97;2.63;;;8.90;78.90;;;;;;2226712;64;20296;-69
2022/05/04 00:47:33;;;;;;;9.18;2.70;;;8.90;79.10;;;;;;2223407;64;20223;-70
2022/05/04 00:50:11;;;;;;;5.88;2.25;;;8.90;79.40;;;;;;2229118;64;20294;-70
2022/05/04 00:52:51;;;;;;;4.05;1.95;;;8.80;78.80;;;;;;2223748;64;20207;-70
2022/05/04 00:55:30;;;;;;;11.52;3.05;;;8.80;78.60;;;;;;2228408;64;20260;-70
2022/05/04 01:01:03;;;;;;;6.20;2.60;;;8.80;78.90;;;;;;2229267;64;20167;-71
2022/05/04 01:03:41;;;;;;;9.70;2.30;;;8.80;79.00;;;;;;2228014;64;20163;-71
2022/05/04 01:06:20;;;;;;;8.90;2.53;;;8.80;79.20;;;;;;2225999;64;20175;-70
2022/05/04 01:08:57;;;;;;;6.95;2.92;;;8.80;79.30;;;;;;2225578;64;20196;-70
2022/05/04 01:11:33;;;;;;;7.28;2.42;;;8.70;79.40;;;;;;2226283;64;20199;-70
2022/05/04 01:14:14;;;;;;;5.82;2.33;;;8.70;79.70;;;;;;2225505;64;20259;-70
2022/05/04 01:16:51;;;;;;;8.40;2.53;;;8.70;79.70;;;;;;2222290;64;20167;-71
2022/05/04 01:19:28;;;;;;;4.40;1.80;;;8.70;80.00;;;;;;2228835;64;20534;-71
2022/05/04 01:22:07;;;;;;;6.30;2.50;;;8.70;80.00;;;;;;2227138;64;20300;-71
2022/05/04 01:24:47;;;;;;;7.32;2.42;;;8.70;80.40;;;;;;2219063;64;20216;-71
2022/05/04 01:27:27;;;;;;;8.90;2.25;;;8.70;80.60;;;;;;2221764;64;20624;-72
2022/05/04 01:30:04;;;;;;;9.18;2.47;;;8.70;80.90;;;;;;2225604;64;20893;-70
2022/05/04 01:32:43;;;;;;;7.40;2.00;;;8.70;81.00;;;;;;2221546;64;20175;-70
2022/05/04 01:35:21;;;;;;;8.48;2.20;;;8.70;81.10;;;;;;2220649;64;20302;-69
2022/05/04 01:37:58;;;;;;;7.10;2.90;;;8.70;81.20;;;;;;2222434;64;20635;-70
2022/05/04 01:40:36;;;;;;;6.55;2.10;;;8.70;81.40;;;;;;2224036;64;20229;-71
2022/05/04 01:43:17;;;;;;;6.55;2.40;;;8.70;81.70;;;;;;2229818;64;20174;-70
2022/05/04 01:45:58;;;;;;;5.38;2.83;;;8.70;81.80;;;;;;2223367;64;20215;-72
2022/05/04 01:48:35;;;;;;;7.32;2.55;;;9.00;82.40;;;;;;2223755;64;20179;-70
2022/05/04 01:51:16;;;;;;;8.73;2.20;;;8.70;82.50;;;;;;2220603;64;20435;-70
2022/05/04 01:53:56;;;;;;;8.80;2.28;;;8.70;82.70;;;;;;2222387;64;20241;-71
2022/05/04 01:56:33;;;;;;;5.10;2.60;;;8.60;82.70;;;;;;2221801;64;20306;-70
2022/05/04 01:59:10;;;;;;;6.43;2.47;;;8.60;82.90;;;;;;2222642;64;20160;-70
2022/05/04 02:01:48;;;;;;;5.13;2.55;;;8.60;83.20;;;;;;2223955;64;20279;-69
2022/05/04 02:04:29;;;;;;;7.55;2.67;;;8.60;83.30;;;;;;2225930;64;20583;-70
2022/05/04 02:07:10;;;;;;;5.90;2.72;;;8.50;83.50;;;;;;2224598;64;20327;-69
2022/05/04 02:09:50;;;;;;;4.35;2.20;;;8.60;83.70;;;;;;2228687;64;20199;-71
2022/05/04 02:12:28;;;;;;;9.27;2.88;;;8.50;83.60;;;;;;2222714;64;20375;-70
2022/05/04 02:15:10;;;;;;;8.10;2.60;;;8.50;83.80;;;;;;2224454;64;20187;-70
2022/05/04 02:17:47;;;;;;;8.00;2.60;;;8.50;83.70;;;;;;2225226;64;20316;-70
2022/05/04 02:20:24;;;;;;;8.02;2.83;;;8.50;83.50;;;;;;2228970;64;20320;-70
2022/05/04 02:23:01;;;;;;;8.90;2.78;;;8.50;83.70;;;;;;2227390;64;20192;-70
2022/05/04 02:25:57;;;;;;;8.98;2.38;;;8.50;83.60;;;;;;2222160;64;20179;-70
2022/05/04 02:28:35;;;;;;;;;;;8.50;83.70;;;;;;2223446;64;20274;-70
2022/05/04 02:31:15;;;;;;;5.78;1.75;;;8.50;83.60;;;;;;2222934;64;20083;-70
2022/05/04 02:33:51;;;;;;;7.60;2.45;;;8.50;83.30;;;;;;2225515;64;20300;-71
2022/05/04 02:39:24;;;;;;;5.28;2.00;;;8.50;83.00;;;;;;2227030;64;20179;-70
2022/05/04 02:42:06;;;;;;;9.27;2.55;;;8.50;83.00;;;;;;2227361;64;20194;-71
2022/05/04 02:44:46;;;;;;;4.85;2.20;;;8.50;83.00;;;;;;2227505;64;20172;-70
2022/05/04 02:47:28;;;;;;;7.78;2.40;;;8.40;82.70;;;;;;2225293;64;20179;-70
2022/05/04 02:50:06;;;;;;;6.18;1.90;;;8.40;82.20;;;;;;2227450;64;20599;-71
2022/05/04 02:52:43;;;;;;;4.60;1.80;;;8.40;81.60;;;;;;2222955;64;20247;-71
2022/05/04 02:55:21;;;;;;;6.70;1.85;;;8.40;81.60;;;;;;2230555;64;20580;-69
2022/05/04 02:58:03;;;;;;;4.20;1.63;;;8.40;81.60;;;;;;2224387;64;20185;-69
2022/05/04 03:00:39;;;;;;;7.03;2.15;;;8.50;81.60;;;;;;2231079;64;20192;-70
2022/05/04 03:03:16;;;;;;;8.27;1.90;;;8.40;81.50;;;;;;2222730;64;20267;-70
2022/05/04 03:05:53;;;;;;;5.10;1.88;;;8.40;81.50;;;;;;2220905;64;20215;-72
2022/05/04 03:08:31;;;;;;;4.18;2.00;;;8.40;81.30;;;;;;2224844;64;20192;-70
2022/05/04 03:14:09;;;;;;;3.05;1.45;;;8.30;81.30;;;;;;2225795;64;20228;-70
2022/05/04 03:16:48;;;;;;;5.85;2.10;;;8.40;81.40;;;;;;2223599;64;20195;-70
2022/05/04 03:19:26;;;;;;;7.07;2.05;;;8.30;81.40;;;;;;2228192;64;20196;-69
2022/05/04 03:22:10;;;;;;;5.80;2.42;;;8.30;81.50;;;;;;2223374;64;20277;-70
2022/05/04 03:24:49;;;;;;;5.60;2.05;;;8.30;81.80;;;;;;2225366;64;20361;-71
2022/05/04 03:27:26;;;;;;;10.52;2.60;;;8.30;81.80;;;;;;2227168;64;20230;-70
2022/05/04 03:30:05;;;;;;;8.00;2.00;;;8.30;81.80;;;;;;2225579;64;20171;-71
2022/05/04 03:32:45;;;;;;;5.18;1.80;;;8.30;81.50;;;;;;2226545;64;20167;-70
2022/05/04 03:35:25;;;;;;;6.85;2.95;;;8.30;81.10;;;;;;2222434;64;20312;-70
2022/05/04 03:38:05;;;;;;;10.00;2.05;;;8.30;81.10;;;;;;2223472;64;20183;-70
2022/05/04 03:40:42;;;;;;;6.78;2.40;;;8.30;81.10;;;;;;2223890;64;20350;-70
2022/05/04 03:43:18;;;;;;;5.13;2.00;;;8.40;81.20;;;;;;2222761;64;20347;-72
2022/05/04 03:46:18;;;;;;;5.05;2.08;;;8.30;80.90;;;;;;2227422;64;20492;-72
2022/05/04 03:48:57;;;;;;;9.43;2.17;;;8.30;80.80;;;;;;2227545;64;20249;-71
2022/05/04 03:51:35;;;;;;;5.50;2.17;;;8.30;80.80;;;;;;2227720;64;20159;-70
2022/05/04 03:54:15;;;;;;;5.40;1.65;;;8.30;81.10;;;;;;2224162;64;20246;-71
2022/05/04 03:56:56;;;;;;;6.13;2.00;;;8.30;81.20;;;;;;2224810;64;20254;-70
2022/05/04 03:59:35;;;;;;;3.08;1.73;;;8.30;80.90;;;;;;2230097;64;20342;-70
2022/05/04 04:02:12;;;;;;;9.88;3.63;;;8.30;80.90;;;;;;2229420;64;20170;-70
2022/05/04 04:04:49;;;;;;;7.25;2.50;;;8.30;81.20;;;;;;2223077;64;20629;-71
2022/05/04 04:07:25;;;;;;;6.55;2.35;;;8.30;81.00;;;;;;2228158;64;20207;-69
2022/05/04 04:10:02;;;;;;;9.38;3.08;;;8.30;81.20;;;;;;2228089;64;20193;-70
2022/05/04 04:12:39;;;;;;;4.97;2.53;;;8.30;81.20;;;;;;2230540;64;20299;-71
2022/05/04 04:15:16;;;;;;;9.10;2.42;;;8.30;81.20;;;;;;2228141;64;23366;-71
2022/05/04 04:17:54;;;;;;;6.82;2.28;;;8.30;81.20;;;;;;2222224;64;20284;-70
2022/05/04 04:23:25;;;;;;;5.32;1.92;;;8.30;80.90;;;;;;2220956;64;20356;-70
2022/05/04 04:26:03;;;;;;;7.45;2.33;;;8.30;80.70;;;;;;2218816;64;22325;-69
2022/05/04 04:28:40;;;;;;;6.03;2.47;;;8.30;80.80;;;;;;2221101;64;20392;-70
2022/05/04 04:31:21;;;;;;;6.68;2.17;;;8.30;80.90;;;;;;2223251;64;20176;-70
2022/05/04 04:34:01;;;;;;;6.05;1.67;;;8.30;81.20;;;;;;2222888;64;20283;-70
2022/05/04 04:36:43;;;;;;;3.88;1.98;;;8.40;81.10;;;;;;2222781;64;20216;-70
2022/05/04 04:39:19;;;;;;;5.05;2.15;;;8.30;80.80;;;;;;2223155;64;20595;-70
2022/05/04 04:41:56;;;;;;;6.95;2.50;;;8.40;80.70;;;;;;2223129;64;20685;-70
2022/05/04 04:44:33;;;;;;;5.55;2.00;;;8.40;80.60;;;;;;2222518;64;20179;-70
2022/05/04 04:47:11;;;;;;;4.00;1.52;;;8.40;80.40;;;;;;2222956;64;20296;-71
2022/05/04 04:49:51;;;;;;;7.30;1.95;;;8.40;80.50;;;;;;2222909;64;20777;-70
2022/05/04 04:52:28;;;;;;;4.05;1.73;;;8.40;80.50;;;;;;2222854;64;20330;-72
2022/05/04 04:55:08;;;;;;;11.10;1.85;;;8.40;80.20;;;;;;2222937;64;20214;-69
2022/05/04 04:57:47;;;;;;;6.60;2.05;;;8.40;80.10;;;;;;2221012;64;20171;-70
2022/05/04 05:00:39;;;;;;;6.25;1.67;;;8.40;80.10;;;;;;2177919;64;15092548;-70
2022/05/04 05:03:19;;;;;;;5.25;2.42;;;8.40;80.20;;;;;;2223846;64;20267;-70
2022/05/04 05:05:56;;;;;;;5.35;2.55;;;8.50;80.50;;;;;;2223033;64;20247;-69
2022/05/04 05:08:34;;;;;;;11.60;2.53;;;8.50;80.40;;;;;;2223023;64;20653;-69
2022/05/04 05:11:14;;;;;;;5.60;2.05;;;8.50;80.60;;;;;;2223136;64;20368;-72
2022/05/04 05:16:50;;;;;;;6.75;2.53;;;8.50;80.80;;;;;;2222272;64;20185;-70
2022/05/04 05:19:29;;;;;;;6.82;1.92;;;8.50;80.80;;;;;;2221911;64;20260;-70
2022/05/04 05:22:07;;;;;;;7.03;2.30;;;8.50;80.90;;;;;;2221712;64;20249;-70
2022/05/04 05:24:46;;;;;;;7.20;2.28;;;8.60;81.10;;;;;;2221704;64;20163;-71
2022/05/04 05:27:23;;;;;;;5.18;2.35;;;8.60;80.90;;;;;;2222108;64;20820;-70
2022/05/04 05:30:01;;;;;;;7.70;1.92;;;8.60;80.70;;;;;;2223336;64;20200;-70
2022/05/04 05:32:42;;;;;;;7.72;1.88;;;8.70;80.60;;;;;;2216331;64;20293;-69
2022/05/04 05:35:23;;;;;;;6.00;2.08;;;8.70;79.70;;;;;;2219050;64;20187;-71
2022/05/04 05:38:02;;;;;;;5.75;1.70;;;8.70;79.20;;;;;;2221349;64;20179;-71
2022/05/04 05:40:40;;;;;;;4.70;1.95;;;8.70;79.30;;;;;;2226361;64;20307;-70
2022/05/04 05:43:20;;;;;;;6.75;1.75;;;8.70;79.50;;;;;;2226878;64;20167;-70
2022/05/04 05:46:00;;;;;;;6.65;2.30;;;8.90;79.70;;;;;;2222623;64;20308;-71
2022/05/04 05:48:37;;;;;;;5.25;1.70;;;8.80;79.30;;;;;;2223126;64;20179;-70
2022/05/04 05:51:14;;;;;;;4.88;1.65;;;8.90;79.30;;;;;;2222253;64;20284;-70
2022/05/04 05:53:54;;;;;;;5.65;2.53;;;9.00;79.40;;;;;;2225094;64;20183;-71
2022/05/04 05:56:32;;;;;;;6.00;1.92;;;9.00;79.30;;;;;;2224681;64;20220;-71
2022/05/04 05:59:32;;;;;;;8.93;2.90;;;9.00;79.00;;;;;;2224157;64;20283;-70
2022/05/04 06:02:14;;;;;;;6.53;1.80;;;9.10;78.70;;;;;;2221665;64;20171;-70
2022/05/04 06:04:52;;;;;;;9.10;2.08;;;9.10;78.70;;;;;;2227999;64;20237;-70
2022/05/04 06:07:36;;;;;;;4.35;1.70;;;9.20;78.50;;;;;;2221742;64;20227;-70
2022/05/04 06:10:17;;;;;;;7.97;2.28;;;9.30;78.40;;;;;;2220489;64;20230;-71
2022/05/04 06:12:55;;;;;;;7.43;2.05;;;9.30;78.30;;;;;;2222463;64;20329;-70
2022/05/04 06:15:35;;;;;;;7.70;2.20;;;9.40;78.10;;;;;;2222209;64;20256;-71
2022/05/04 06:18:13;;;;;;;5.90;2.05;;;9.40;77.60;;;;;;2222178;64;20678;-71
2022/05/04 06:20:53;;;;;;;6.63;1.88;;;9.50;77.50;;;;;;2222407;64;20678;-71
2022/05/04 06:23:31;;;;;;;7.32;2.78;;;9.50;77.00;;;;;;2222589;64;20193;-70
2022/05/04 06:26:10;;;;;;;5.43;2.00;;;9.60;76.80;;;;;;2222299;64;20193;-72
2022/05/04 06:28:47;;;;;;;3.92;1.92;;;9.60;76.70;;;;;;2225207;64;20159;-70
2022/05/04 06:34:21;;;;;;;7.35;1.95;;;9.60;76.40;;;;;;2223437;64;20703;-69
2022/05/04 06:37:01;;;;;;;7.45;1.80;;;9.60;76.10;;;;;;2223615;64;20159;-70
2022/05/04 06:39:44;;;;;;;8.38;2.15;;;9.60;76.00;;;;;;2223791;64;20172;-70
2022/05/04 06:42:22;;;;;;;5.07;2.13;;;9.70;75.50;;;;;;2223597;64;20193;-70
2022/05/04 06:45:02;;;;;;;4.75;2.08;;;9.70;75.10;;;;;;2223936;64;20704;-70
2022/05/04 06:47:40;;;;;;;6.22;1.98;;;9.80;75.90;;;;;;2223510;64;20175;-69
2022/05/04 06:50:19;;;;;;;4.65;1.67;;;9.90;75.20;;;;;;2223153;64;20677;-69
2022/05/04 06:52:58;;;;;;;7.60;1.98;;;9.90;74.60;;;;;;2223559;64;20193;-69
2022/05/04 06:55:35;;;;;;;5.63;1.52;;;10.00;74.90;;;;;;2223533;64;20207;-69
2022/05/04 06:58:13;;;;;;;5.95;2.40;;;10.10;74.80;;;;;;2223673;64;20171;-69
2022/05/04 07:00:52;;;;;;;5.38;1.80;;;10.20;74.80;;;;;;2215919;64;20184;-70
2022/05/04 07:03:30;;;;;;;4.55;1.52;;;10.30;73.90;;;;;;2215958;64;20190;-70
2022/05/04 07:06:07;;;;;;;7.32;1.65;;;10.30;73.40;;;;;;2218344;64;20312;-70
2022/05/04 07:08:45;;;;;;;6.45;2.03;;;11.10;73.60;;;;;;2223539;64;20160;-69
2022/05/04 07:11:26;;;;;;;8.30;2.13;;;10.40;73.30;;;;;;2223603;64;20205;-69
2022/05/04 07:14:07;;;;;;;6.95;2.22;;;10.40;72.90;;;;;;2223616;64;20241;-70
2022/05/04 07:16:45;;;;;;;4.45;1.92;;;10.50;72.70;;;;;;2223590;64;20191;-70
2022/05/04 07:19:27;;;;;;;15.27;8.57;;;10.60;72.60;;;;;;2223398;64;20328;-70
2022/05/04 07:22:11;;;;;;;6.13;1.40;;;10.70;72.70;;;;;;2223040;64;20331;-69
2022/05/04 07:24:50;;;;;;;4.13;1.65;;;10.20;72.60;;;;;;2223457;64;20563;-69
2022/05/04 07:27:27;;;;;;;8.90;1.90;;;10.90;71.90;;;;;;2220700;64;20172;-68
2022/05/04 07:30:06;;;;;;;5.28;1.50;;;11.00;71.20;;;;;;2221877;64;20177;-69
2022/05/04 07:32:46;;;;;;;4.90;1.75;;;11.00;70.50;;;;;;2223468;64;20234;-69
2022/05/04 07:35:24;;;;;;;6.40;2.60;;;11.00;70.30;;;;;;2223338;64;20231;-69
2022/05/04 07:38:04;;;;;;;3.47;1.77;;;11.10;69.80;;;;;;2222915;64;20238;-69
2022/05/04 07:43:37;;;;;;;5.40;1.88;;;11.20;69.00;;;;;;2222298;64;20218;-69
2022/05/04 07:46:16;;;;;;;5.85;1.77;;;11.20;68.90;;;;;;2223326;64;20239;-69
2022/05/04 07:48:55;;;;;;;4.53;1.70;;;11.30;68.70;;;;;;2222850;64;20351;-69
2022/05/04 07:51:35;;;;;;;4.03;1.98;;;11.30;68.80;;;;;;2223182;64;20295;-71
2022/05/04 07:54:16;;;;;;;4.75;1.65;;;11.50;69.10;;;;;;2222265;64;20765;-69
2022/05/04 07:56:55;;;;;;;6.38;2.40;;;11.70;68.90;;;;;;2223292;64;20225;-70
2022/05/04 07:59:32;;;;;;;3.97;1.80;;;11.90;68.80;;;;;;2226478;64;20226;-69
2022/05/04 08:05:06;;;;;;;6.45;1.80;;;12.20;68.00;;;;;;2228451;64;20163;-70
2022/05/04 08:07:45;;;;;;;4.32;1.60;;;12.20;67.20;;;;;;2231090;64;20196;-69
2022/05/04 08:10:25;;;;;;;5.40;1.60;;;12.20;66.90;;;;;;2224347;64;20382;-70
2022/05/04 08:13:03;;;;;;;7.03;2.17;;;12.20;66.60;;;;;;2224369;64;20189;-69
2022/05/04 08:15:42;;;;;;;3.45;1.60;;;12.20;66.60;;;;;;2225610;64;20231;-70
2022/05/04 08:18:20;;;;;;;6.40;1.90;;;12.20;66.40;;;;;;2228056;64;20172;-69
2022/05/04 08:21:01;;;;;;;7.50;2.35;;;12.20;66.50;;;;;;2229363;64;20253;-69
2022/05/04 08:23:40;;;;;;;5.38;1.95;;;12.20;66.30;;;;;;2230663;64;20628;-70
2022/05/04 08:26:18;;;;;;;5.15;1.95;;;12.20;66.40;;;;;;2224613;64;20666;-69
2022/05/04 08:28:58;;;;;;;6.32;2.88;;;12.10;66.70;;;;;;2222298;64;20163;-69
2022/05/04 08:31:38;;;;;;;6.65;1.75;;;12.10;66.50;;;;;;2216385;64;20668;-70
2022/05/04 08:34:26;;;;;;;4.28;2.13;;;12.00;66.20;;;;;;2216730;64;20223;-69
2022/05/04 08:37:07;;;;;;;3.75;2.40;;;12.20;66.80;;;;;;2223691;64;20259;-70
2022/05/04 08:39:47;;;;;;;6.43;1.90;;;12.00;66.50;;;;;;2226344;64;20383;-70
2022/05/04 08:42:27;;;;;;;5.50;2.15;;;12.00;66.30;;;;;;2230503;64;20339;-70
2022/05/04 08:45:10;;;;;;;5.50;2.30;;;12.00;66.30;;;;;;2229329;64;20229;-70
2022/05/04 08:47:51;;;;;;;5.53;1.92;;;12.10;66.40;;;;;;2222068;64;20167;-70
2022/05/04 08:50:29;;;;;;;5.50;1.85;;;12.20;66.30;;;;;;2216464;64;20242;-72
2022/05/04 08:53:09;;;;;;;6.15;2.05;;;12.40;66.30;;;;;;2218028;64;20207;-72
2022/05/04 08:55:48;;;;;;;9.88;2.20;;;12.40;66.30;;;;;;2228726;64;20199;-71
2022/05/04 08:58:30;;;;;;;6.30;1.92;;;12.50;65.90;;;;;;2224750;64;20689;-71
2022/05/04 09:01:11;;;;;;;5.43;2.30;;;12.60;65.60;;;;;;2224096;64;20159;-69
2022/05/04 09:03:51;;;;;;;9.65;2.40;;;12.70;65.30;;;;;;2225800;64;20324;-72
2022/05/04 09:06:43;;;;;;;6.90;2.00;;;12.70;65.30;;;;;;2230799;64;20159;-71
2022/05/04 09:09:21;;;;;;;4.97;2.10;;;12.70;65.40;;;;;;2225102;64;20650;-71
2022/05/04 09:12:03;;;;;;;4.50;2.17;;;12.80;65.80;;;;;;2222947;64;20214;-72
2022/05/04 09:14:41;;;;;;;7.45;2.55;;;12.70;64.90;;;;;;2229230;64;20251;-74
2022/05/04 09:17:26;;;;;;;7.10;2.30;;;12.60;65.20;;;;;;2223315;64;20480;-73
2022/05/04 09:22:59;;;;;;;5.82;1.95;;;12.90;65.00;;;;;;2228824;64;20167;-74
2022/05/04 09:25:39;;;;;;;4.43;1.85;;;13.00;64.70;;;;;;2222668;64;20191;-71
2022/05/04 09:28:16;;;;;;;4.50;2.28;;;13.10;64.30;;;;;;2222502;64;20269;-71
2022/05/04 09:30:54;;;;;;;3.88;1.83;;;13.10;63.50;;;;;;2224791;64;20210;-71
2022/05/04 09:33:35;;;;;;;8.88;2.80;;;13.20;63.40;;;;;;2223689;64;20346;-73
2022/05/04 09:36:14;;;;;;;9.48;2.92;;;13.40;63.30;;;;;;2223021;64;20171;-72
2022/05/04 09:45:17;;;;;;;8.35;2.00;;;13.70;63.30;;;;;;2221812;64;20237;-73
2022/05/04 09:47:54;;;;;;;7.07;2.28;;;13.90;62.80;;;;;;2222245;64;20377;-74
2022/05/04 09:50:43;;;;;;;7.10;2.92;;;14.00;62.00;;;;;;2218562;64;20193;-71
2022/05/04 09:53:27;;;;;;;5.18;2.28;;;13.90;60.80;;;;;;2224911;64;20189;-74
2022/05/04 09:56:09;;;;;;;8.25;1.98;;;13.90;61.10;;;;;;2222839;64;20606;-74
2022/05/04 09:58:46;;;;;;;4.18;1.98;;;14.00;61.20;;;;;;2226738;64;20379;-72
2022/05/04 10:01:23;;;;;;;6.55;2.28;;;14.10;61.30;;;;;;2222240;64;20476;-73
2022/05/04 10:04:04;;;;;;;5.45;2.28;;;14.30;61.40;;;;;;2221696;64;20332;-72
2022/05/04 10:06:43;;;;;;;5.78;2.28;;;14.60;61.20;;;;;;2222592;64;20208;-71
2022/05/04 10:09:23;;;;;;;10.75;2.33;;;14.80;60.90;;;;;;2222312;64;20282;-71
2022/05/04 10:12:00;;;;;;;3.88;1.88;;;15.20;60.50;;;;;;2221977;64;20359;-72
2022/05/04 10:14:39;;;;;;;5.45;2.42;;;15.30;59.50;;;;;;2218187;64;20168;-72
2022/05/04 10:17:25;;;;;;;5.43;1.83;;;15.40;58.90;;;;;;2222318;64;20573;-72
2022/05/04 10:20:32;;;;;;;6.40;2.83;;;15.30;58.70;;;;;;2225404;64;20340;-72
2022/05/04 10:23:16;;;;;;;11.18;2.50;;;15.30;58.00;;;;;;2222141;64;20306;-73
2022/05/04 10:25:59;;;;;;;5.53;2.13;;;15.30;58.00;;;;;;2221414;64;20231;-71
2022/05/04 10:30:30;;;;;;;5.80;2.33;;;15.30;58.20;;;;;;2222402;64;20226;-73
2022/05/04 10:31:56;;;;;;;6.20;1.80;;;15.50;58.10;;;;;;2214640;64;20668;-71
2022/05/04 10:34:44;;;;;;;6.30;2.00;;;15.50;57.00;;;;;;2216447;64;20248;-72
2022/05/04 10:37:21;;;;;;;3.25;2.08;;;15.30;57.70;;;;;;2221917;64;20171;-73
2022/05/04 10:40:10;;;;;;;5.47;1.88;;;15.30;57.70;;;;;;2219383;64;20249;-73
2022/05/04 10:43:13;;;;;;;8.57;2.10;;;15.50;57.80;;;;;;2221253;64;20182;-72
2022/05/04 10:45:49;;;;;;;5.10;1.83;;;15.80;57.30;;;;;;2224616;64;20167;-74
2022/05/04 10:48:28;;;;;;;6.22;2.55;;;16.10;57.70;;;;;;2222555;64;20327;-72
2022/05/04 10:51:18;;;;;;;5.43;1.90;;;17.00;56.90;;;;;;2218569;64;20827;-74
2022/05/04 10:54:08;;;;;;;6.65;1.92;;;18.20;55.50;;;;;;2221070;64;20641;-75
2022/05/04 10:56:46;;;;;;;5.38;2.22;;;19.00;53.40;;;;;;2218657;64;20334;-72
2022/05/04 10:59:34;;;;;;;6.45;1.75;;;18.90;53.20;;;;;;2219928;64;20213;-69
2022/05/04 11:02:19;;;;;;;3.90;1.85;;;18.70;52.10;;;;;;2219275;64;20230;-69
2022/05/04 11:05:12;;;;;;;3.78;2.15;;;18.40;52.40;;;;;;2221415;64;20278;-69
2022/05/04 11:07:50;;;;;;;5.32;1.90;;;18.30;52.00;;;;;;2219367;64;20257;-73
2022/05/04 11:10:31;;;;;;;4.97;1.95;;;18.70;52.40;;;;;;2218377;64;20171;-73
2022/05/04 11:13:09;;;;;;;5.60;1.98;;;19.20;51.60;;;;;;2218798;64;20258;-71
2022/05/04 11:15:52;;;;;;;4.65;1.75;;;19.70;51.70;;;;;;2221370;64;20203;-72
2022/05/04 11:18:35;;;;;;;5.45;2.30;;;20.70;49.80;;;;;;2221353;64;20193;-72
2022/05/04 11:21:18;;;;;;;6.10;2.47;;;20.90;48.80;;;;;;2221568;64;20190;-71
2022/05/04 11:24:00;;;;;;;8.55;2.13;;;21.00;47.60;;;;;;2221143;64;20183;-72
2022/05/04 11:26:44;;;;;;;5.75;1.95;;;21.40;47.30;;;;;;2219538;64;20171;-73
2022/05/04 11:29:27;;;;;;;5.82;2.00;;;21.80;46.80;;;;;;2220833;64;20675;-72
2022/05/04 11:32:06;;;;;;;6.82;2.10;;;22.10;46.80;;;;;;2220993;64;20276;-72
2022/05/04 11:34:44;;;;;;;3.17;1.77;;;22.70;46.20;;;;;;2221712;64;20635;-73
2022/05/04 11:37:25;;;;;;;3.72;1.60;;;23.50;45.90;;;;;;2220758;64;20224;-72
2022/05/04 11:40:15;;;;;;;6.20;2.15;;;24.60;44.90;;;;;;2222437;64;20227;-73
2022/05/04 11:42:53;;;;;;;4.93;2.00;;;25.40;42.00;;;;;;2219084;64;20307;-72
2022/05/04 11:45:34;;;;;;;5.35;1.70;;;25.50;42.10;;;;;;2221963;64;20159;-73
2022/05/04 11:48:14;;;;;;;6.93;2.00;;;26.30;41.50;;;;;;2219946;64;20187;-73
2022/05/04 11:50:55;;;;;;;8.02;2.75;;;26.60;39.80;;;;;;2221626;64;20252;-74
2022/05/04 11:53:35;;;;;;;3.78;2.00;;;26.90;39.30;;;;;;2221673;64;20318;-72
2022/05/04 11:56:16;;;;;;;7.53;2.28;;;27.20;39.70;;;;;;2221527;64;20276;-72
2022/05/04 11:58:55;;;;;;;6.35;2.10;;;27.60;39.00;;;;;;2220995;64;20234;-72
2022/05/04 12:01:33;;;;;;;6.72;2.78;;;27.40;38.30;;;;;;2221046;64;20167;-75
2022/05/04 12:04:15;;;;;;;5.82;2.05;;;27.40;38.70;;;;;;2220611;64;20208;-75
2022/05/04 12:06:56;;;;;;;4.32;2.15;;;28.30;38.70;;;;;;2220746;64;21047;-75
2022/05/04 12:09:33;;;;;;;6.55;2.67;;;29.00;37.10;;;;;;2220514;64;20160;-73
2022/05/04 12:12:10;;;;;;;3.80;2.42;;;29.00;36.50;;;;;;2224754;64;20539;-74
2022/05/04 12:14:53;;;;;;;5.63;2.47;;;28.60;35.90;;;;;;2221177;64;20682;-70
2022/05/04 12:17:30;;;;;;;4.75;2.20;;;27.90;36.00;;;;;;2220677;64;20183;-71
2022/05/04 12:20:11;;;;;;;4.55;1.75;;;28.20;36.30;;;;;;2221594;64;20195;-74
2022/05/04 12:22:48;;;;;;;6.10;2.03;;;28.80;36.40;;;;;;2219725;64;20176;-74
2022/05/04 12:25:27;;;;;;;4.82;2.05;;;29.50;36.10;;;;;;2219687;64;20240;-75
2022/05/04 12:28:08;;;;;;;7.88;2.25;;;30.00;35.90;;;;;;2220988;64;20430;-73
2022/05/04 12:33:42;;;;;;;;;;;31.50;35.60;;;;;;2220934;64;20168;-72
2022/05/04 12:36:20;;;;;;;3.30;1.95;;;31.90;35.30;;;;;;2221582;64;20063;-72
2022/05/04 12:38:57;;;;;;;3.20;1.80;;;32.10;34.90;;;;;;2221382;64;20347;-72
2022/05/04 12:41:34;;;;;;;4.97;2.28;;;32.20;33.90;;;;;;2220227;64;20253;-72
2022/05/04 12:44:16;;;;;;;3.75;2.03;;;32.40;33.60;;;;;;2221469;64;20239;-71
2022/05/04 12:46:58;;;;;;;4.65;2.10;;;32.70;33.20;;;;;;2220967;64;20651;-71
2022/05/04 12:49:38;;;;;;;6.70;2.55;;;33.10;33.20;;;;;;2221561;64;20179;-73
2022/05/04 12:52:16;;;;;;;5.70;2.50;;;33.20;32.60;;;;;;2221570;64;20249;-72
2022/05/04 12:54:57;;;;;;;4.85;2.17;;;33.40;32.90;;;;;;2220971;64;20229;-72
2022/05/04 12:57:39;;;;;;;4.07;2.25;;;33.50;32.10;;;;;;2221008;64;20775;-73
2022/05/04 13:00:20;;;;;;;5.13;1.95;;;33.30;31.90;;;;;;2220453;64;20163;-73
2022/05/04 13:02:59;;;;;;;4.65;2.38;;;33.70;32.30;;;;;;2220908;64;20207;-72
2022/05/04 13:05:36;;;;;;;5.65;2.55;;;33.40;31.40;;;;;;2220377;64;20662;-72
2022/05/04 13:08:14;;;;;;;4.47;2.53;;;32.90;31.30;;;;;;2221416;64;20171;-72
2022/05/04 13:10:54;;;;;;;5.45;2.55;;;32.70;31.40;;;;;;2219075;64;20176;-72
2022/05/04 13:13:31;;;;;;;3.58;2.75;;;32.80;31.40;;;;;;2221800;64;20163;-73
2022/05/04 13:16:08;;;;;;;5.97;2.45;;;32.50;31.10;;;;;;2222082;64;20218;-74
2022/05/04 13:18:47;;;;;;;5.28;2.35;;;32.50;31.40;;;;;;2221535;64;20223;-73
2022/05/04 13:21:28;;;;;;;4.35;2.33;;;32.70;32.10;;;;;;2220663;64;20279;-72
2022/05/04 13:24:08;;;;;;;5.78;2.70;;;32.70;31.30;;;;;;2220994;64;20189;-74
2022/05/04 13:26:45;;;;;;;3.03;2.40;;;32.00;31.70;;;;;;2221700;64;20311;-72
2022/05/04 13:29:21;;;;;;;4.82;2.10;;;32.20;32.20;;;;;;2220804;64;20994;-74
2022/05/04 13:31:58;;;;;;;3.17;2.10;;;32.00;31.90;;;;;;2221312;64;20219;-74
2022/05/04 13:34:36;;;;;;;7.10;2.42;;;31.50;32.10;;;;;;2220151;64;20922;-75
2022/05/04 13:37:12;;;;;;;3.85;2.13;;;32.00;32.30;;;;;;2221350;64;20205;-75
2022/05/04 13:39:49;;;;;;;2.92;2.05;;;32.00;32.10;;;;;;2220213;64;20741;-74
2022/05/04 13:42:26;;;;;;;3.15;1.92;;;32.20;32.20;;;;;;2221134;64;20232;-72
2022/05/04 13:45:04;;;;;;;6.78;2.53;;;31.90;31.80;;;;;;2219934;64;20795;-69
2022/05/04 13:47:42;;;;;;;4.38;2.30;;;31.10;32.10;;;;;;2220329;64;20233;-73
2022/05/04 13:53:17;;;;;;;4.07;2.20;;;31.30;32.30;;;;;;2220922;64;20201;-74
2022/05/04 13:55:57;;;;;;;4.47;2.28;;;31.70;32.40;;;;;;2218520;64;20189;-75
2022/05/04 13:58:38;;;;;;;6.18;2.30;;;31.70;32.00;;;;;;2219978;64;20302;-74
2022/05/04 14:01:17;;;;;;;4.90;2.50;;;31.30;32.40;;;;;;2220981;64;20365;-76
2022/05/04 14:03:59;;;;;;;4.80;1.88;;;32.00;32.50;;;;;;2221696;64;20247;-73
2022/05/04 14:06:36;;;;;;;5.88;1.92;;;33.00;31.90;;;;;;2221514;64;20251;-72
2022/05/04 14:09:14;;;;;;;5.57;2.30;;;33.60;31.40;;;;;;2221523;64;20668;-74
2022/05/04 14:11:54;;;;;;;6.70;2.42;;;34.00;31.00;;;;;;2220782;64;20410;-74
2022/05/04 14:17:25;;;;;;;;;;;35.20;30.60;;;;;;2220493;64;20502;-72
2022/05/04 14:20:02;;;;;;;3.65;2.00;;;35.70;31.10;;;;;;2220674;64;20077;-72
2022/05/04 14:22:39;;;;;;;6.20;2.00;;;36.10;30.00;;;;;;2219581;64;20217;-70
2022/05/04 14:25:15;;;;;;;5.30;2.50;;;36.60;29.50;;;;;;2219783;64;20219;-73
2022/05/04 14:27:53;;;;;;;4.53;2.50;;;36.40;29.10;;;;;;2219795;64;20199;-73
2022/05/04 14:30:31;;;;;;;3.35;1.90;;;36.20;29.40;;;;;;2219840;64;20167;-73
2022/05/04 14:33:07;;;;;;;3.67;2.30;;;36.10;29.20;;;;;;2218677;64;20172;-74
2022/05/04 14:35:44;;;;;;;5.15;2.65;;;36.10;29.90;;;;;;2220587;64;20249;-72
2022/05/04 14:38:20;;;;;;;6.05;2.28;;;36.50;29.40;;;;;;2221179;64;20569;-74
2022/05/04 14:40:57;;;;;;;5.45;2.50;;;37.00;29.20;;;;;;2220825;64;20193;-69